Time;durP1;ratioP1;P1;durP2;ratioP2;P2;SDS_P1;SDS_P2;PMS_P1;PMS_P2;Temp;Humidity;BMP_temperature;BMP_pressure;BME280_temperature;BME280_humidity;BME280_pressure;Samples;Min_cycle;Max_cycle;Signal;HPM_P1;HPM_P2
2022/04/26 03:36:56;;;;;;;39.60;24.93;;;;;;;9.34;100.00;97689.22;5072667;28;20218;-61
2022/04/26 03:39:22;;;;;;;40.93;25.20;;;;;;;9.35;100.00;97698.81;5077038;28;20354;-61
2022/04/26 03:41:49;;;;;;;38.83;24.97;;;;;;;9.34;100.00;97695.34;5076462;28;20691;-62
2022/04/26 03:44:15;;;;;;;38.87;23.13;;;;;;;9.38;100.00;97699.47;5076350;28;20706;-61
2022/04/26 03:46:42;;;;;;;35.63;23.40;;;;;;;9.40;100.00;97707.25;5076285;28;20235;-59
2022/04/26 03:49:08;;;;;;;36.80;22.57;;;;;;;9.40;100.00;97701.97;5076242;28;20681;-62
2022/04/26 03:51:36;;;;;;;37.23;22.70;;;;;;;9.42;100.00;97700.91;5076549;28;20211;-61
2022/04/26 03:54:02;;;;;;;33.50;22.23;;;;;;;9.42;100.00;97706.19;5076626;28;20230;-62
2022/04/26 03:56:29;;;;;;;34.93;22.73;;;;;;;9.39;100.00;97700.28;5076374;28;20221;-62
2022/04/26 03:58:55;;;;;;;36.33;23.67;;;;;;;9.36;100.00;97705.78;5074327;28;20211;-63
2022/04/26 04:01:22;;;;;;;33.00;23.50;;;;;;;9.38;100.00;97710.00;5069414;28;20211;-62
2022/04/26 04:03:48;;;;;;;34.73;23.57;;;;;;;9.39;100.00;97710.84;5076036;28;20243;-62
2022/04/26 04:06:15;;;;;;;38.00;22.43;;;;;;;9.41;100.00;97711.56;5076014;28;20731;-62
2022/04/26 04:08:43;;;;;;;33.87;22.57;;;;;;;9.39;100.00;97709.06;5075887;28;20218;-62
2022/04/26 04:11:09;;;;;;;36.23;23.43;;;;;;;9.35;100.00;97719.91;5076259;28;20222;-62
2022/04/26 04:13:35;;;;;;;37.73;24.47;;;;;;;9.39;100.00;97718.75;5076169;28;20217;-60
2022/04/26 04:16:02;;;;;;;33.50;22.47;;;;;;;9.40;100.00;97728.34;5076098;28;20222;-60
2022/04/26 04:21:12;;;;;;;34.43;21.87;;;;;;;9.46;100.00;97728.75;5070332;28;20265;-61
2022/04/26 04:23:40;;;;;;;36.30;23.80;;;;;;;9.47;100.00;97724.31;5075746;28;20699;-60
2022/04/26 04:26:08;;;;;;;33.70;22.00;;;;;;;9.47;100.00;97730.44;5074129;28;20248;-59
2022/04/26 04:28:35;;;;;;;33.33;22.13;;;;;;;9.44;100.00;97729.81;5073356;28;20280;-63
2022/04/26 04:31:02;;;;;;;33.90;22.77;;;;;;;9.43;100.00;97730.78;5075869;28;20304;-62
2022/04/26 04:33:28;;;;;;;37.40;23.50;;;;;;;9.42;100.00;97731.72;5075747;28;20214;-61
2022/04/26 04:35:55;;;;;;;33.50;21.93;;;;;;;9.44;100.00;97735.09;5075726;28;20238;-61
2022/04/26 04:38:22;;;;;;;32.17;20.70;;;;;;;9.43;100.00;97743.97;5075487;28;20220;-61
2022/04/26 04:40:48;;;;;;;36.37;23.17;;;;;;;9.41;100.00;97746.69;5075742;28;20224;-61
2022/04/26 04:43:16;;;;;;;34.50;21.50;;;;;;;9.41;100.00;97745.84;5075616;28;20237;-59
2022/04/26 04:45:43;;;;;;;33.50;22.47;;;;;;;9.44;100.00;97745.66;5075352;28;20226;-58
2022/04/26 04:48:10;;;;;;;34.43;22.13;;;;;;;9.46;100.00;97747.22;5074248;28;20272;-59
2022/04/26 04:50:37;;;;;;;31.07;21.00;;;;;;;9.49;100.00;97749.63;5074688;28;20588;-58
2022/04/26 04:53:03;;;;;;;35.30;22.23;;;;;;;9.51;100.00;97742.47;5074642;28;20660;-57
2022/04/26 04:55:30;;;;;;;37.67;23.10;;;;;;;9.55;100.00;97737.81;5075100;28;20217;-62
2022/04/26 04:57:56;;;;;;;35.63;22.23;;;;;;;9.57;100.00;97728.00;5074996;28;20708;-60
2022/04/26 05:00:24;;;;;;;31.33;20.73;;;;;;;9.59;100.00;97734.84;5068393;28;20219;-60
2022/04/26 05:02:51;;;;;;;31.27;20.10;;;;;;;9.57;100.00;97738.53;5075200;28;20218;-58
2022/04/26 05:05:17;;;;;;;30.13;19.97;;;;;;;9.55;100.00;97743.09;5075162;28;20222;-56
2022/04/26 05:07:44;;;;;;;31.80;20.40;;;;;;;9.56;100.00;97734.22;5074847;28;20245;-56
2022/04/26 05:10:10;;;;;;;30.57;20.60;;;;;;;9.58;100.00;97737.59;5075045;28;20214;-56
2022/04/26 05:12:37;;;;;;;29.37;19.93;;;;;;;9.60;100.00;97735.69;5074904;28;20208;-56
2022/04/26 05:15:04;;;;;;;32.03;21.20;;;;;;;9.63;100.00;97736.31;5075174;28;20609;-58
2022/04/26 05:17:32;;;;;;;30.90;20.07;;;;;;;9.68;100.00;97739.44;5073297;28;20218;-58
2022/04/26 05:19:58;;;;;;;31.13;20.97;;;;;;;9.73;100.00;97742.59;5074876;28;20220;-55
2022/04/26 05:22:25;;;;;;;35.50;22.63;;;;;;;9.76;100.00;97745.03;5074896;28;20210;-58
2022/04/26 05:24:53;;;;;;;35.47;23.67;;;;;;;9.77;100.00;97748.50;5074461;28;20215;-55
2022/04/26 05:27:20;;;;;;;33.37;22.33;;;;;;;9.78;100.00;97735.19;5074695;28;20582;-59
2022/04/26 05:29:46;;;;;;;33.93;23.00;;;;;;;9.81;100.00;97742.06;5074539;28;20241;-57
2022/04/26 05:32:13;;;;;;;36.10;23.47;;;;;;;9.83;100.00;97746.28;5074440;28;20222;-59
2022/04/26 05:34:41;;;;;;;31.40;21.37;;;;;;;9.81;100.00;97742.91;5068253;28;20211;-61
2022/04/26 05:37:07;;;;;;;30.00;21.67;;;;;;;9.81;100.00;97752.63;5074549;28;20222;-59
2022/04/26 05:39:34;;;;;;;30.30;20.30;;;;;;;9.81;100.00;97744.69;5074504;28;20226;-59
2022/04/26 05:42:00;;;;;;;30.87;20.27;;;;;;;9.83;100.00;97748.91;5074477;28;20223;-61
2022/04/26 05:44:27;;;;;;;30.60;20.27;;;;;;;9.87;100.00;97754.81;5072827;28;20218;-60
2022/04/26 05:46:53;;;;;;;31.00;19.70;;;;;;;9.93;100.00;97757.00;5074250;28;20239;-60
2022/04/26 05:49:20;;;;;;;34.23;22.17;;;;;;;9.94;100.00;97756.91;5073506;28;20214;-59
2022/04/26 05:51:49;;;;;;;33.10;22.03;;;;;;;9.96;100.00;97754.13;5074344;28;20220;-59
2022/04/26 05:54:15;;;;;;;32.37;21.83;;;;;;;9.97;100.00;97761.13;5074360;28;20223;-60
2022/04/26 05:56:42;;;;;;;35.60;23.87;;;;;;;9.96;100.00;97764.69;5074199;28;20219;-59
2022/04/26 05:59:08;;;;;;;33.53;21.43;;;;;;;9.98;100.00;97773.38;5074149;28;20220;-60
2022/04/26 06:01:35;;;;;;;33.47;20.97;;;;;;;10.00;100.00;97760.88;5073878;28;20223;-60
2022/04/26 06:04:01;;;;;;;32.80;21.50;;;;;;;10.04;100.00;97765.03;5073819;28;20208;-61
2022/04/26 06:06:28;;;;;;;30.53;20.77;;;;;;;10.06;100.00;97763.97;5074013;28;20219;-61
2022/04/26 06:08:55;;;;;;;32.93;21.77;;;;;;;10.09;100.00;97762.91;5072207;28;20212;-60
2022/04/26 06:11:22;;;;;;;33.63;22.70;;;;;;;10.14;100.00;97773.94;5074101;28;20223;-61
2022/04/26 06:13:49;;;;;;;33.20;21.77;;;;;;;10.17;100.00;97773.75;5073962;28;20227;-60
2022/04/26 06:16:15;;;;;;;29.20;20.73;;;;;;;10.16;100.00;97772.88;5073818;28;20265;-60
2022/04/26 06:18:42;;;;;;;25.57;18.27;;;;;;;10.16;100.00;97787.91;5073362;28;20673;-61
2022/04/26 06:21:09;;;;;;;26.57;18.13;;;;;;;10.16;100.00;97787.91;5073804;28;20258;-61
2022/04/26 06:23:35;;;;;;;29.40;19.83;;;;;;;10.15;100.00;97797.63;5073390;28;20216;-60
2022/04/26 06:26:03;;;;;;;28.43;19.00;;;;;;;10.15;100.00;97796.78;5073644;28;20215;-60
2022/04/26 06:28:30;;;;;;;30.63;21.20;;;;;;;10.11;100.00;97790.03;5073237;28;20240;-60
2022/04/26 06:30:56;;;;;;;27.57;19.23;;;;;;;10.10;100.00;97783.06;5073526;28;20223;-60
2022/04/26 06:33:23;;;;;;;26.03;18.43;;;;;;;10.08;100.00;97783.19;5073339;28;20223;-62
2022/04/26 06:35:50;;;;;;;32.40;21.33;;;;;;;10.07;100.00;97783.28;5071570;28;20223;-60
2022/04/26 06:38:17;;;;;;;37.70;23.17;;;;;;;10.08;100.00;97779.69;5073346;28;20584;-62
2022/04/26 06:40:45;;;;;;;32.40;21.60;;;;;;;10.04;100.00;97784.34;5073471;28;20263;-61
2022/04/26 06:43:12;;;;;;;33.97;22.47;;;;;;;10.00;100.00;97785.50;5073395;28;20246;-61
2022/04/26 06:45:39;;;;;;;32.13;22.13;;;;;;;9.94;100.00;97793.88;5073488;28;20211;-60
2022/04/26 06:48:08;;;;;;;38.63;24.63;;;;;;;9.93;100.00;97784.28;5073168;28;20246;-61
2022/04/26 06:50:34;;;;;;;36.90;23.57;;;;;;;9.95;100.00;97797.34;5073250;28;20299;-61
2022/04/26 06:53:01;;;;;;;35.83;23.77;;;;;;;10.01;100.00;97804.81;5072900;28;20215;-61
2022/04/26 06:55:27;;;;;;;32.47;21.57;;;;;;;10.03;100.00;97793.22;5072980;28;20241;-61
2022/04/26 06:57:54;;;;;;;35.33;22.23;;;;;;;10.00;100.00;97792.56;5072952;28;20219;-61
2022/04/26 07:00:22;;;;;;;30.83;22.07;;;;;;;9.96;100.00;97785.81;5065263;28;20686;-61
2022/04/26 07:02:48;;;;;;;32.97;21.70;;;;;;;9.92;100.00;97789.66;5071421;28;20215;-61
2022/04/26 07:05:16;;;;;;;35.93;23.93;;;;;;;9.92;100.00;97792.28;5072793;28;20219;-61
2022/04/26 07:07:43;;;;;;;31.03;21.67;;;;;;;10.00;100.00;97798.72;5072856;28;20249;-61
2022/04/26 07:10:10;;;;;;;30.37;21.50;;;;;;;10.10;100.00;97799.75;5073032;28;20655;-62
2022/04/26 07:12:37;;;;;;;35.47;23.97;;;;;;;10.15;100.00;97796.78;5072826;28;20223;-61
2022/04/26 07:15:05;;;;;;;32.33;23.07;;;;;;;10.11;100.00;97788.25;5072136;28;20227;-62
2022/04/26 07:17:33;;;;;;;29.17;20.63;;;;;;;10.16;100.00;97793.19;5071342;28;20218;-62
2022/04/26 07:20:00;;;;;;;29.43;20.37;;;;;;;10.17;100.00;97794.88;5071477;28;20471;-62
2022/04/26 07:22:26;;;;;;;26.17;19.03;;;;;;;10.24;100.00;97796.09;5071580;28;20226;-62
2022/04/26 07:24:53;;;;;;;23.30;17.97;;;;;;;10.35;100.00;97801.44;5071336;28;20671;-62
2022/04/26 07:27:20;;;;;;;21.43;16.83;;;;;;;10.38;100.00;97802.06;5070104;28;20241;-62
2022/04/26 07:29:49;;;;;;;19.90;16.13;;;;;;;10.47;100.00;97797.91;5071682;28;20216;-62
2022/04/26 07:32:16;;;;;;;21.60;17.30;;;;;;;10.61;100.00;97795.06;5071208;28;20230;-62
2022/04/26 07:34:43;;;;;;;19.73;15.70;;;;;;;10.77;100.00;97798.25;5071694;28;20216;-63
2022/04/26 07:37:09;;;;;;;17.47;14.63;;;;;;;10.87;100.00;97802.75;5071898;28;20239;-63
2022/04/26 07:39:36;;;;;;;15.87;13.37;;;;;;;11.07;100.00;97793.31;5071588;28;20217;-63
2022/04/26 07:42:03;;;;;;;16.23;13.43;;;;;;;11.25;100.00;97797.19;5071108;28;20221;-63
2022/04/26 07:44:30;;;;;;;15.30;13.33;;;;;;;11.33;100.00;97785.06;5071203;28;20579;-63
2022/04/26 07:46:58;;;;;;;13.37;11.10;;;;;;;11.31;100.00;97800.19;5071349;28;20609;-63
2022/04/26 07:49:26;;;;;;;14.00;11.73;;;;;;;11.25;100.00;97802.47;5071331;28;20232;-64
2022/04/26 07:51:54;;;;;;;12.60;10.80;;;;;;;11.17;100.00;97794.25;5070993;28;20250;-64
2022/04/26 07:54:21;;;;;;;12.20;10.90;;;;;;;11.05;100.00;97788.13;5069753;28;20219;-63
2022/04/26 07:56:48;;;;;;;12.83;10.73;;;;;;;11.02;100.00;97800.75;5071029;28;20217;-62
2022/04/26 07:59:15;;;;;;;12.67;10.90;;;;;;;11.09;100.00;97804.59;5071004;28;20221;-64
2022/04/26 08:01:42;;;;;;;12.10;10.77;;;;;;;11.10;100.00;97809.78;5069390;28;20456;-64
2022/04/26 08:04:08;;;;;;;12.47;10.70;;;;;;;11.15;100.00;97817.34;5059527;28;20207;-63
2022/04/26 08:06:35;;;;;;;11.13;9.67;;;;;;;11.25;100.00;97819.16;5069873;28;20599;-63
2022/04/26 08:09:03;;;;;;;12.57;10.87;;;;;;;11.39;100.00;97823.41;5070085;28;20243;-63
2022/04/26 08:11:29;;;;;;;12.33;10.20;;;;;;;11.52;100.00;97842.66;5066018;28;20231;-63
2022/04/26 08:13:56;;;;;;;10.43;9.40;;;;;;;11.60;100.00;97857.03;5061430;28;20217;-63
2022/04/26 08:16:23;;;;;;;14.43;10.37;;;;;;;11.63;100.00;97845.34;5074004;28;20215;-65
2022/04/26 08:18:49;;;;;;;11.33;9.83;;;;;;;11.68;100.00;97848.50;5073350;28;20211;-64
2022/04/26 08:21:17;;;;;;;12.07;10.27;;;;;;;11.77;100.00;97858.34;5072013;28;20213;-64
2022/04/26 08:29:14;;;;;;;10.30;9.20;;;;;;;12.02;100.00;97869.56;5069610;28;20246;-66
2022/04/26 08:31:41;;;;;;;12.03;10.47;;;;;;;12.17;100.00;97868.31;5065144;28;20219;-65
2022/04/26 08:34:07;;;;;;;11.50;10.30;;;;;;;12.36;100.00;97868.53;5073730;28;20222;-65
2022/04/26 08:36:34;;;;;;;10.53;9.43;;;;;;;12.38;100.00;97873.72;5071152;28;20236;-65
2022/04/26 08:39:01;;;;;;;11.30;10.20;;;;;;;12.32;100.00;97879.50;5073097;28;20272;-65
2022/04/26 08:41:29;;;;;;;11.10;10.00;;;;;;;12.24;100.00;97884.59;5073013;28;20224;-65
2022/04/26 08:43:55;;;;;;;11.20;10.00;;;;;;;12.27;100.00;97885.19;5073130;28;20279;-65
2022/04/26 08:50:59;;;;;;;11.23;9.57;;;;;;;12.38;100.00;97879.88;5071775;28;20458;-65
2022/04/26 08:52:00;;;;;;;11.30;10.17;;;;;;;12.63;100.00;97876.06;5072895;28;20221;-66
2022/04/26 08:54:26;;;;;;;13.03;11.73;;;;;;;12.73;100.00;97877.00;5072629;28;20216;-66
2022/04/26 08:56:54;;;;;;;10.63;9.60;;;;;;;12.83;100.00;97878.78;5073337;28;20213;-67
2022/04/26 08:59:21;;;;;;;9.63;8.63;;;;;;;12.89;100.00;97893.38;5073315;28;20218;-66
2022/04/26 09:01:47;;;;;;;10.20;9.13;;;;;;;12.94;100.00;97885.84;5072288;28;20213;-66
2022/04/26 09:04:15;;;;;;;9.63;8.60;;;;;;;13.06;98.95;97890.16;5073219;28;20220;-66
2022/04/26 09:06:43;;;;;;;10.50;8.93;;;;;;;13.32;99.72;97897.66;5072932;28;20226;-66
2022/04/26 09:09:12;;;;;;;9.40;8.40;;;;;;;13.47;95.50;97895.53;5072251;28;20687;-66
2022/04/26 09:11:39;;;;;;;9.07;8.17;;;;;;;13.48;95.59;97898.06;5072317;28;20215;-65
2022/04/26 09:14:09;;;;;;;10.30;8.20;;;;;;;13.42;92.08;97897.72;5058664;28;20215;-65
2022/04/26 09:16:36;;;;;;;9.30;7.97;;;;;;;13.43;93.76;97892.28;5069466;28;20230;-66
2022/04/26 09:19:06;;;;;;;8.50;7.53;;;;;;;13.46;94.45;97894.66;5072617;28;20662;-65
2022/04/26 09:21:33;;;;;;;10.07;8.67;;;;;;;13.57;94.94;97901.75;5072516;28;20259;-65
2022/04/26 09:24:01;;;;;;;9.30;8.27;;;;;;;13.63;92.64;97901.22;5070660;28;20230;-65
2022/04/26 09:26:34;;;;;;;9.30;8.03;;;;;;;13.71;90.34;97915.53;5072652;28;20592;-66
2022/04/26 09:29:00;;;;;;;9.10;7.40;;;;;;;13.82;89.58;97902.16;5072526;28;20278;-65
2022/04/26 09:31:29;;;;;;;9.63;7.87;;;;;;;13.86;89.59;97908.06;5071275;28;20222;-66
2022/04/26 09:33:59;;;;;;;8.53;7.53;;;;;;;13.86;86.40;97913.38;5070886;28;20230;-66
2022/04/26 09:36:28;;;;;;;7.97;7.20;;;;;;;13.81;84.96;97899.66;5071008;28;20298;-66
2022/04/26 09:38:57;;;;;;;8.00;7.17;;;;;;;13.67;85.16;97914.13;5071352;28;20218;-67
2022/04/26 09:41:24;;;;;;;8.20;7.30;;;;;;;13.55;88.34;97908.97;5069945;28;20215;-67
2022/04/26 09:44:01;;;;;;;8.90;7.43;;;;;;;13.64;86.89;97905.56;5071446;28;20717;-67
2022/04/26 09:46:45;;;;;;;9.83;7.77;;;;;;;13.63;87.70;97907.38;5063424;28;20261;-67
2022/04/26 09:49:14;;;;;;;7.07;6.20;;;;;;;13.54;77.45;97915.28;5071888;28;20322;-67
2022/04/26 09:51:42;;;;;;;7.27;5.83;;;;;;;13.53;78.00;97916.25;5066295;28;20249;-66
2022/04/26 09:54:09;;;;;;;7.80;6.23;;;;;;;13.71;79.36;97910.25;5071004;28;20210;-67
2022/04/26 09:56:36;;;;;;;7.60;6.37;;;;;;;14.02;79.40;97913.75;5071830;28;20214;-67
2022/04/26 09:59:04;;;;;;;6.67;5.90;;;;;;;14.30;80.17;97908.59;5071973;28;20230;-67
2022/04/26 10:01:36;;;;;;;8.03;6.40;;;;;;;14.66;78.86;97913.31;5065520;28;20223;-67
2022/04/26 10:04:05;;;;;;;7.87;6.63;;;;;;;14.84;77.74;97914.34;5071471;28;20302;-67
2022/04/26 10:06:34;;;;;;;7.17;5.90;;;;;;;15.09;76.91;97912.97;5069915;28;20216;-67
2022/04/26 10:09:02;;;;;;;7.83;6.07;;;;;;;15.17;75.85;97916.63;5068001;28;20239;-69
2022/04/26 10:11:29;;;;;;;7.07;5.87;;;;;;;14.98;75.05;97918.44;5071260;28;20223;-68
2022/04/26 10:13:57;;;;;;;6.97;5.83;;;;;;;14.84;70.78;97918.84;5064173;28;20218;-67
2022/04/26 10:16:24;;;;;;;6.20;5.60;;;;;;;14.79;71.63;97916.56;5060463;28;20252;-68
2022/04/26 10:19:01;;;;;;;6.47;5.40;;;;;;;14.85;73.77;97913.34;5071211;28;20207;-69
2022/04/26 10:21:47;;;;;;;7.23;5.27;;;;;;;15.00;72.73;97909.31;5071246;28;20216;-68
2022/04/26 10:24:19;;;;;;;7.00;5.53;;;;;;;15.12;71.52;97918.00;5070292;28;20215;-66
2022/04/26 10:26:47;;;;;;;6.33;5.73;;;;;;;15.26;68.41;97920.25;5068404;28;20223;-67
2022/04/26 10:29:24;;;;;;;5.43;4.80;;;;;;;15.36;70.83;97919.31;5070918;28;20236;-67
2022/04/26 10:31:59;;;;;;;7.60;5.30;;;;;;;15.21;62.35;97910.03;5070027;28;20216;-67
2022/04/26 10:34:31;;;;;;;5.50;4.57;;;;;;;15.25;66.56;97918.56;5069052;28;20210;-67
2022/04/26 10:37:03;;;;;;;5.83;5.23;;;;;;;15.20;68.79;97904.84;5066365;28;20207;-66
2022/04/26 10:39:37;;;;;;;5.87;4.90;;;;;;;15.18;66.60;97914.78;5070072;28;20221;-67
2022/04/26 10:42:07;;;;;;;4.40;4.00;;;;;;;15.28;62.85;97911.16;5070173;28;20610;-66
2022/04/26 10:44:40;;;;;;;4.80;4.30;;;;;;;15.47;65.63;97908.50;5070936;28;20228;-67
2022/04/26 10:47:39;;;;;;;6.03;5.43;;;;;;;15.65;62.86;97912.13;5070105;28;20216;-67
2022/04/26 10:50:09;;;;;;;5.87;5.10;;;;;;;15.82;66.18;97908.75;5028257;28;20241;-66
2022/04/26 10:52:41;;;;;;;5.83;5.03;;;;;;;16.08;65.44;97908.97;5060666;28;20240;-65
2022/04/26 10:55:10;;;;;;;5.57;4.80;;;;;;;16.25;60.13;97907.22;5071074;28;20222;-65
2022/04/26 10:57:40;;;;;;;4.50;3.90;;;;;;;16.57;61.01;97910.31;5058297;28;20209;-65
2022/04/26 11:00:09;;;;;;;4.63;4.10;;;;;;;16.98;58.63;97911.63;5069719;28;20211;-66
2022/04/26 11:02:38;;;;;;;4.40;4.00;;;;;;;17.03;56.14;97920.00;5071455;28;20272;-65
2022/04/26 11:05:10;;;;;;;6.27;5.50;;;;;;;16.79;54.52;97917.94;5068844;28;20213;-66
2022/04/26 11:07:37;;;;;;;5.53;5.00;;;;;;;16.26;57.38;97929.38;5071599;28;20750;-66
2022/04/26 11:10:05;;;;;;;5.47;5.00;;;;;;;16.22;57.88;97923.47;5071534;28;20586;-65
2022/04/26 11:12:33;;;;;;;6.83;5.67;;;;;;;16.25;61.77;97943.69;5071400;28;20220;-65
2022/04/26 11:15:04;;;;;;;7.17;6.40;;;;;;;15.95;64.78;97943.09;5071049;28;20226;-66
2022/04/26 11:17:30;;;;;;;7.00;6.30;;;;;;;14.90;68.19;97955.53;5071411;28;20321;-67
2022/04/26 11:19:58;;;;;;;7.40;6.70;;;;;;;14.42;73.93;97965.19;5071486;28;20215;-66
2022/04/26 11:22:28;;;;;;;7.97;7.13;;;;;;;14.14;75.20;97960.53;5071133;28;20701;-67
2022/04/26 11:28:06;;;;;;;8.43;7.50;;;;;;;13.79;80.67;97981.28;5070379;28;20218;-65
2022/04/26 11:30:43;;;;;;;10.03;7.63;;;;;;;13.65;77.16;97984.25;5072234;28;20240;-65
2022/04/26 11:33:15;;;;;;;7.43;6.30;;;;;;;13.22;79.20;97976.38;5071422;28;20218;-65
2022/04/26 11:35:43;;;;;;;7.03;6.23;;;;;;;12.66;83.96;97987.19;5072158;28;20222;-66
2022/04/26 11:38:16;;;;;;;7.07;6.37;;;;;;;11.90;88.68;98000.28;5071044;28;20218;-64
2022/04/26 11:40:48;;;;;;;6.70;6.00;;;;;;;11.30;87.40;97996.06;5071384;28;20225;-66
2022/04/26 11:43:19;;;;;;;6.87;6.17;;;;;;;11.14;88.40;97995.53;5070912;28;20236;-66
2022/04/26 11:45:55;;;;;;;6.37;5.20;;;;;;;11.43;81.23;97996.88;5070353;28;20244;-65
2022/04/26 11:48:24;;;;;;;5.93;5.33;;;;;;;12.09;80.84;98003.19;5071450;28;20227;-64
2022/04/26 11:50:55;;;;;;;5.33;4.80;;;;;;;12.66;77.15;97989.84;5074604;28;20216;-65
2022/04/26 11:53:25;;;;;;;5.40;4.10;;;;;;;13.15;72.43;97987.59;5074897;28;20217;-65
2022/04/26 11:55:54;;;;;;;5.00;4.60;;;;;;;13.27;68.71;97984.78;5073296;28;20219;-64
2022/04/26 11:58:22;;;;;;;4.73;4.33;;;;;;;13.61;68.36;97983.69;5074664;28;20217;-64
2022/04/26 12:01:00;;;;;;;5.10;4.60;;;;;;;13.89;67.62;97982.19;5074683;28;20222;-65
2022/04/26 12:03:30;;;;;;;4.77;4.37;;;;;;;13.83;65.99;97983.56;5074489;28;20229;-64
2022/04/26 12:06:00;;;;;;;4.47;4.03;;;;;;;13.62;63.77;97982.69;5074561;28;20211;-64
2022/04/26 12:08:32;;;;;;;4.80;4.37;;;;;;;13.54;67.72;97992.28;5074445;28;20241;-66
2022/04/26 12:11:14;;;;;;;4.90;4.37;;;;;;;13.51;69.09;97995.19;5067131;28;20732;-64
2022/04/26 12:13:40;;;;;;;5.57;5.03;;;;;;;13.52;70.21;97996.88;5073094;28;20319;-64
2022/04/26 12:16:21;;;;;;;5.67;5.17;;;;;;;13.46;71.14;98000.03;5074527;28;20245;-64
2022/04/26 12:18:54;;;;;;;5.97;5.37;;;;;;;13.35;71.70;97994.78;5073777;28;20695;-65
2022/04/26 12:21:24;;;;;;;5.70;5.13;;;;;;;13.28;71.08;98005.06;5072587;28;20272;-65
2022/04/26 12:24:14;;;;;;;5.53;5.00;;;;;;;13.41;69.45;98002.22;5073787;28;20667;-66
2022/04/26 12:26:56;;;;;;;6.70;6.00;;;;;;;13.50;69.01;98001.47;5065797;28;20218;-65
2022/04/26 12:29:24;;;;;;;6.20;5.60;;;;;;;13.47;70.80;98015.00;5073871;28;20244;-65
2022/04/26 12:31:53;;;;;;;6.07;5.37;;;;;;;13.54;72.71;98013.53;5073940;28;20215;-66
2022/04/26 12:34:23;;;;;;;8.13;6.10;;;;;;;13.48;71.74;98019.34;5073976;28;20269;-65
2022/04/26 12:37:07;;;;;;;5.47;4.77;;;;;;;13.83;74.67;98023.41;5074108;28;20761;-65
2022/04/26 12:39:48;;;;;;;4.67;3.57;;;;;;;14.39;69.20;98013.28;5072035;28;20211;-66
2022/04/26 12:42:20;;;;;;;3.60;2.83;;;;;;;14.13;62.28;98022.63;5073974;28;20765;-67
2022/04/26 12:45:03;;;;;;;3.90;3.47;;;;;;;13.69;68.47;98022.88;5074344;28;20597;-66
2022/04/26 12:50:35;;;;;;;4.97;3.30;;;;;;;13.04;69.09;98041.56;5073751;28;20246;-66
2022/04/26 12:53:04;;;;;;;5.30;3.13;;;;;;;12.70;72.76;98052.25;5073779;28;20218;-65
2022/04/26 12:55:38;;;;;;;4.93;2.63;;;;;;;12.61;74.38;98042.38;5074106;28;20570;-66
2022/04/26 12:58:09;;;;;;;2.50;2.07;;;;;;;12.77;75.61;98042.88;5072533;28;20310;-67
2022/04/26 13:00:42;;;;;;;1.97;1.87;;;;;;;12.73;72.77;98049.38;5073944;28;20222;-67
2022/04/26 13:03:11;;;;;;;2.03;1.73;;;;;;;12.98;73.92;98057.09;5071761;28;20672;-66
2022/04/26 13:05:44;;;;;;;4.47;1.97;;;;;;;13.06;70.35;98054.66;5073920;28;20784;-64
2022/04/26 13:08:12;;;;;;;1.60;1.50;;;;;;;13.06;69.16;98059.97;5073891;28;20225;-66
2022/04/26 13:10:43;;;;;;;1.70;1.60;;;;;;;13.14;69.85;98060.22;5073609;28;20244;-66
2022/04/26 13:13:12;;;;;;;1.47;1.37;;;;;;;13.25;68.43;98062.84;5073412;28;20222;-66
2022/04/26 13:15:41;;;;;;;2.27;1.10;;;;;;;13.20;69.32;98068.53;5072520;28;20790;-66
2022/04/26 13:18:08;;;;;;;1.20;1.10;;;;;;;13.04;68.90;98061.91;5061629;28;20212;-66
2022/04/26 13:20:39;;;;;;;1.40;1.30;;;;;;;12.89;70.13;98058.66;5071849;28;20676;-66
2022/04/26 13:23:15;;;;;;;1.27;1.10;;;;;;;12.75;72.71;98056.25;5060229;28;20213;-65
2022/04/26 13:25:46;;;;;;;1.50;1.40;;;;;;;12.97;71.37;98066.03;5067681;28;20214;-67
2022/04/26 13:28:15;;;;;;;3.57;1.30;;;;;;;13.15;75.05;98070.69;5069716;28;20238;-66
2022/04/26 13:30:47;;;;;;;3.10;1.50;;;;;;;13.32;69.31;98072.84;5073254;28;20322;-66
2022/04/26 13:33:14;;;;;;;1.57;1.07;;;;;;;13.48;71.38;98073.28;5066754;28;20247;-65
2022/04/26 13:35:40;;;;;;;1.60;1.37;;;;;;;13.59;69.35;98069.75;5066494;28;20211;-65
2022/04/26 13:38:12;;;;;;;1.50;1.40;;;;;;;13.76;68.07;98067.38;5072931;28;20230;-66
2022/04/26 13:40:41;;;;;;;1.50;1.40;;;;;;;13.86;66.79;98067.44;5071556;28;20536;-66
2022/04/26 13:43:10;;;;;;;1.90;1.40;;;;;;;13.80;64.56;98063.50;5073053;28;20724;-66
2022/04/26 13:45:45;;;;;;;1.50;1.40;;;;;;;13.78;67.61;98065.47;5073053;28;20229;-65
2022/04/26 13:48:12;;;;;;;1.60;1.50;;;;;;;13.90;71.33;98063.59;5072899;28;20785;-66
2022/04/26 13:50:43;;;;;;;2.17;1.70;;;;;;;14.07;69.18;98055.03;5073066;28;20729;-65
2022/04/26 13:53:11;;;;;;;2.13;1.93;;;;;;;14.22;68.28;98064.41;5072405;28;20212;-66
2022/04/26 13:55:38;;;;;;;2.63;2.43;;;;;;;14.17;64.12;98064.75;5063325;28;20298;-66
2022/04/26 13:58:08;;;;;;;3.07;2.70;;;;;;;14.10;64.30;98065.41;5062262;28;20211;-65
2022/04/26 14:00:39;;;;;;;2.90;2.20;;;;;;;13.98;63.67;98072.59;5061459;28;20225;-66
2022/04/26 14:03:08;;;;;;;2.53;2.33;;;;;;;13.85;69.30;98074.59;5058761;28;20220;-66
2022/04/26 14:05:35;;;;;;;2.53;2.17;;;;;;;13.78;66.77;98072.56;5068645;28;20580;-66
2022/04/26 14:08:04;;;;;;;3.13;2.60;;;;;;;13.80;67.07;98073.28;5070918;28;20215;-66
2022/04/26 14:10:31;;;;;;;2.80;2.47;;;;;;;13.74;61.88;98074.63;5071654;28;20717;-65
2022/04/26 14:12:59;;;;;;;3.67;2.83;;;;;;;13.77;63.42;98074.41;5072498;28;20224;-65
2022/04/26 14:23:39;;;;;;;2.87;2.57;;;;;;;13.10;65.06;98078.22;5072130;28;20226;-65
2022/04/26 14:26:06;;;;;;;3.27;2.60;;;;;;;13.13;67.16;98077.94;5071979;28;20221;-65
2022/04/26 14:28:33;;;;;;;3.30;2.87;;;;;;;13.13;63.81;98077.09;5072375;28;20249;-65
2022/04/26 14:30:59;;;;;;;3.43;2.90;;;;;;;13.22;64.54;98069.25;5072202;28;20245;-65
2022/04/26 14:33:27;;;;;;;2.97;2.70;;;;;;;13.17;67.36;98059.97;5071177;28;20584;-65
2022/04/26 14:35:54;;;;;;;3.20;2.83;;;;;;;13.39;69.39;98073.19;5072115;28;20210;-65
2022/04/26 14:38:20;;;;;;;2.77;2.57;;;;;;;13.57;68.87;98074.34;5072342;28;20269;-65
2022/04/26 14:40:48;;;;;;;2.50;2.30;;;;;;;13.67;65.30;98069.94;5072236;28;20220;-66
2022/04/26 14:43:14;;;;;;;2.00;1.80;;;;;;;13.67;65.42;98072.59;5070969;28;20255;-65
2022/04/26 14:45:45;;;;;;;3.00;2.07;;;;;;;13.73;65.07;98070.31;5065336;28;20219;-65
2022/04/26 14:48:14;;;;;;;2.30;2.10;;;;;;;13.81;62.16;98061.72;5053558;28;20216;-66
2022/04/26 14:50:42;;;;;;;1.80;1.70;;;;;;;14.09;65.20;98069.03;5061661;28;20245;-66
2022/04/26 14:53:09;;;;;;;2.23;2.00;;;;;;;14.49;63.63;98067.38;5063626;28;20707;-66
2022/04/26 14:55:36;;;;;;;1.60;1.50;;;;;;;14.71;62.87;98067.19;5054073;28;20308;-65
2022/04/26 14:58:03;;;;;;;2.10;1.83;;;;;;;14.75;59.67;98063.31;5058646;28;20221;-66
2022/04/26 15:00:30;;;;;;;1.90;1.60;;;;;;;14.76;59.78;98064.97;5063384;28;20216;-66
2022/04/26 15:02:56;;;;;;;2.13;1.93;;;;;;;14.74;60.26;98066.94;5070850;28;20226;-68
2022/04/26 15:05:23;;;;;;;2.43;2.10;;;;;;;14.66;62.03;98070.25;5070272;28;20212;-64
2022/04/26 15:10:34;;;;;;;1.90;1.47;;;;;;;14.25;59.97;98072.13;5067717;28;20244;-67
2022/04/26 15:18:29;;;;;;;1.70;1.60;;;;;;;13.34;63.06;98096.63;5070352;28;20272;-68
2022/04/26 15:20:56;;;;;;;2.20;1.90;;;;;;;13.19;64.32;98096.03;5069748;28;20222;-67
2022/04/26 15:23:24;;;;;;;2.63;2.03;;;;;;;13.22;64.63;98086.97;5069768;28;20219;-68
2022/04/26 15:25:52;;;;;;;2.20;2.00;;;;;;;13.35;65.92;98099.16;5069894;28;20692;-64
2022/04/26 15:28:19;;;;;;;2.53;2.33;;;;;;;13.34;66.98;98096.63;5068579;28;20212;-64
2022/04/26 15:30:46;;;;;;;2.60;2.40;;;;;;;13.38;67.96;98093.56;5069188;28;20243;-65
2022/04/26 15:33:16;;;;;;;2.67;2.20;;;;;;;13.53;66.35;98096.81;5057857;28;20218;-65
2022/04/26 15:35:42;;;;;;;3.53;2.30;;;;;;;13.67;64.32;98099.16;5064782;28;20221;-66
2022/04/26 15:38:10;;;;;;;2.70;2.40;;;;;;;13.60;64.94;98093.53;5069936;28;20657;-67
2022/04/26 15:40:38;;;;;;;2.57;2.37;;;;;;;13.76;64.91;98093.94;5070824;28;20247;-65